»·PEaware :: AWE232 KBNA-KPHX

AWE232 :: KBNA-KPHX

FLIGHT INFORMATION

Flight Status: Arrived
Operator:
US Airways
More flights by this operator :: More flights under this callsign
Pilot: Anonymous 36068 (36068)
Aircraft: BEECH AIRCRAFT PREMIER
(PRM1)
More flights by this aircraft type
Origin: KBNA Nashville Intl
United States
Destination: KPHX Phoenix Sky Harbor Intl
United States
More flights between these airports :: More routes between these airports
Route: PARDN3 HODJS FSM IRW J78 TCC ACH ABQ J78 ZUN EAGUL6
File this flight plan on PilotEdge
Remarks:
Altitude:
(Current/Filed)
36,000ft
Speed:
(Current/Filed)
400kts
Departed: 05-Oct-21 07:04 AM
Arrived: 05-Oct-21 09:03 AM
Distance/Time
Traveled:
1256nm/1:59
Distance/Time
To Go:
Arrived

Flight Plot

Page will automatically refresh every two minutes.

Flight plan parsing failed; only flown route is shown


Map Options




Map Legend


Flown Route
Filed Route
Departure Airport
Arrival Airport
Navaid (VOR, NDB)
Fix

Horizontal Profiles

Position Reports

Time Latitude Longitude Heading Altitude Ground
Speed
05-Oct-21 07:02 35.322416 -99.369878 272 36246ft 380kts
05-Oct-21 07:03 35.320620 -99.498862 288 36241ft 371kts
05-Oct-21 07:04 35.394956 -99.540961 32 36287ft 331kts
05-Oct-21 07:05 35.407191 -99.435588 102 36263ft 352kts
05-Oct-21 07:06 35.378641 -99.320759 101 36253ft 353kts
05-Oct-21 07:07 35.426298 -99.245528 354 36270ft 326kts
05-Oct-21 07:08 35.464107 -99.335051 248 36284ft 366kts
05-Oct-21 07:09 35.432014 -99.451772 259 36259ft 364kts
05-Oct-21 07:10 35.407152 -99.573605 259 36260ft 375kts
05-Oct-21 07:11 35.378991 -99.698869 257 36258ft 385kts
05-Oct-21 07:12 35.350010 -99.825989 257 36257ft 392kts
05-Oct-21 07:13 35.320669 -99.955573 257 36249ft 398kts
05-Oct-21 07:14 35.293767 -100.087503 276 36241ft 395kts
05-Oct-21 07:15 35.295662 -100.221859 271 36236ft 401kts
05-Oct-21 07:16 35.290816 -100.358714 271 36233ft 405kts
05-Oct-21 07:17 35.285757 -100.496660 271 36243ft 407kts
05-Oct-21 07:18 35.280507 -100.635646 271 36250ft 410kts
05-Oct-21 07:19 35.275084 -100.775019 270 36248ft 412kts
05-Oct-21 07:20 35.269620 -100.914802 269 36248ft 413kts
05-Oct-21 07:21 35.263784 -101.055617 267 36247ft 413kts
05-Oct-21 07:22 35.257731 -101.195921 267 36233ft 413kts
05-Oct-21 07:23 35.251622 -101.336038 267 36223ft 413kts
05-Oct-21 07:24 35.245364 -101.476134 267 36221ft 413kts
05-Oct-21 07:25 35.238940 -101.616269 267 36220ft 413kts
05-Oct-21 07:26 35.233912 -101.756054 269 36237ft 412kts
05-Oct-21 07:27 35.230959 -101.896229 269 36238ft 413kts
05-Oct-21 07:28 35.227837 -102.036720 269 36241ft 414kts
05-Oct-21 07:29 35.224552 -102.177478 269 36262ft 414kts
05-Oct-21 07:30 35.221103 -102.318135 269 36275ft 414kts
05-Oct-21 07:31 35.217532 -102.458536 269 36275ft 415kts
05-Oct-21 07:32 35.213734 -102.599861 268 36276ft 415kts
05-Oct-21 07:33 35.209754 -102.740972 268 36274ft 416kts
05-Oct-21 07:34 35.205625 -102.882498 268 36264ft 416kts
05-Oct-21 07:35 35.201407 -103.023691 267 36255ft 417kts
05-Oct-21 07:36 35.197023 -103.164921 266 36258ft 417kts
05-Oct-21 07:37 35.192291 -103.306349 265 36257ft 415kts
05-Oct-21 07:38 35.187553 -103.446510 265 36255ft 414kts
05-Oct-21 07:39 35.182629 -103.586760 265 36255ft 413kts
05-Oct-21 07:40 35.176642 -103.726767 264 36254ft 412kts
05-Oct-21 07:41 35.170424 -103.866200 264 36253ft 412kts
05-Oct-21 07:42 35.164059 -104.005447 264 36270ft 411kts
05-Oct-21 07:43 35.157497 -104.144757 264 36302ft 410kts
05-Oct-21 07:44 35.150841 -104.283501 264 36312ft 410kts
05-Oct-21 07:45 35.143999 -104.422551 265 36310ft 410kts
05-Oct-21 07:46 35.137037 -104.561219 264 36312ft 410kts
05-Oct-21 07:47 35.129876 -104.700340 264 36307ft 410kts
05-Oct-21 07:48 35.122533 -104.839529 264 36308ft 411kts
05-Oct-21 07:49 35.115116 -104.978245 263 36312ft 410kts
05-Oct-21 07:50 35.109294 -105.117239 265 36309ft 409kts
05-Oct-21 07:51 35.104870 -105.255139 264 36310ft 406kts
05-Oct-21 07:52 35.100310 -105.392286 264 36313ft 404kts
05-Oct-21 07:53 35.095605 -105.529131 265 36347ft 402kts
05-Oct-21 07:54 35.090776 -105.665010 264 36373ft 401kts
05-Oct-21 07:55 35.085807 -105.800533 264 36372ft 401kts
05-Oct-21 07:56 35.080699 -105.936195 264 36360ft 401kts
05-Oct-21 07:57 35.075404 -106.071967 264 36341ft 401kts
05-Oct-21 07:58 35.069960 -106.208240 264 36331ft 401kts
05-Oct-21 07:59 35.064403 -106.343889 264 36327ft 401kts
05-Oct-21 08:00 35.058674 -106.479582 264 36328ft 401kts
05-Oct-21 08:01 35.052796 -106.615087 264 36332ft 400kts
05-Oct-21 08:02 35.046777 -106.750529 264 36346ft 400kts
05-Oct-21 08:03 35.042184 -106.886103 264 36354ft 400kts
05-Oct-21 08:04 35.039470 -106.996808 263 36349ft 399kts
05-Oct-21 08:05 35.035916 -107.131134 263 36353ft 396kts
05-Oct-21 08:06 35.032315 -107.264847 263 36352ft 394kts
05-Oct-21 08:07 35.028576 -107.398292 263 36363ft 392kts
05-Oct-21 08:09 35.024723 -107.530601 263 36387ft 391kts
05-Oct-21 08:10 35.020726 -107.662965 262 36389ft 390kts
05-Oct-21 08:11 35.016619 -107.794483 262 36391ft 389kts
05-Oct-21 08:12 35.012356 -107.926152 262 36388ft 389kts
05-Oct-21 08:13 35.007937 -108.058133 262 36390ft 389kts
05-Oct-21 08:14 35.003419 -108.189319 262 36386ft 388kts
05-Oct-21 08:15 34.998734 -108.320757 262 36376ft 388kts
05-Oct-21 08:16 34.993899 -108.452465 262 36361ft 388kts
05-Oct-21 08:17 34.988955 -108.583801 262 36348ft 388kts
05-Oct-21 08:18 34.983834 -108.715390 262 36343ft 388kts
05-Oct-21 08:19 34.978600 -108.846697 262 36329ft 389kts
05-Oct-21 08:20 34.973195 -108.978420 262 36309ft 389kts
05-Oct-21 08:21 34.967725 -109.109824 261 36286ft 389kts
05-Oct-21 08:22 34.937517 -109.231828 241 36266ft 376kts
05-Oct-21 08:23 34.895065 -109.348446 241 36276ft 375kts
05-Oct-21 08:24 34.852555 -109.464621 241 36278ft 377kts
05-Oct-21 08:25 34.809787 -109.581089 241 36275ft 378kts
05-Oct-21 08:26 34.766629 -109.698049 241 36278ft 379kts
05-Oct-21 08:27 34.723363 -109.814965 240 36324ft 379kts
05-Oct-21 08:28 34.679874 -109.931963 241 36348ft 381kts
05-Oct-21 08:29 34.635099 -110.052005 241 35109ft 405kts
05-Oct-21 08:30 34.587657 -110.178901 241 33139ft 420kts
05-Oct-21 08:31 34.539512 -110.307177 241 31212ft 415kts
05-Oct-21 08:32 34.492326 -110.432285 241 29134ft 402kts
05-Oct-21 08:32 34.454014 -110.533516 241 27297ft 391kts
05-Oct-21 08:33 34.409476 -110.650750 240 24876ft 378kts
05-Oct-21 08:35 34.360065 -110.779653 235 24310ft 355kts
05-Oct-21 08:36 34.298928 -110.866882 223 21286ft 337kts
05-Oct-21 08:36 34.246810 -110.934316 223 18873ft 322kts
05-Oct-21 08:37 34.188285 -111.009771 223 18285ft 313kts
05-Oct-21 08:38 34.126847 -111.088884 224 18272ft 314kts
05-Oct-21 08:40 34.060324 -111.174430 225 16565ft 294kts
05-Oct-21 08:41 34.003998 -111.246621 225 15188ft 295kts
05-Oct-21 08:41 33.957539 -111.306074 225 14552ft 291kts
05-Oct-21 08:42 33.902116 -111.376844 225 13779ft 289kts
05-Oct-21 08:43 33.854258 -111.454818 236 13187ft 292kts
05-Oct-21 08:44 33.810310 -111.538192 236 13112ft 296kts
05-Oct-21 08:45 33.768017 -111.618037 235 12468ft 260kts
05-Oct-21 08:46 33.729750 -111.689625 236 11036ft 252kts
05-Oct-21 08:47 33.692281 -111.760012 236 10674ft 232kts
05-Oct-21 08:48 33.657967 -111.824672 237 10042ft 240kts
05-Oct-21 08:49 33.620869 -111.894478 237 9992ft 235kts
05-Oct-21 08:50 33.586621 -111.958790 238 7856ft 229kts
05-Oct-21 08:51 33.553010 -112.021936 239 7028ft 229kts
05-Oct-21 08:52 33.526242 -112.093352 261 7020ft 249kts
05-Oct-21 08:53 33.523911 -112.178386 266 7015ft 259kts
05-Oct-21 08:54 33.520172 -112.263663 268 5555ft 250kts
05-Oct-21 08:55 33.467012 -112.285149 155 4118ft 236kts
05-Oct-21 08:56 33.429813 -112.244794 97 4014ft 152kts
05-Oct-21 08:57 33.428844 -112.193116 90 3820ft 150kts
05-Oct-21 08:58 33.428851 -112.146270 90 3098ft 138kts
05-Oct-21 08:59 33.428858 -112.100861 90 2351ft 129kts
05-Oct-21 09:00 33.428859 -112.059682 89 1685ft 120kts
05-Oct-21 09:01 33.428933 -112.019949 88 1116ft 107kts
05-Oct-21 09:02 33.428255 -112.006315 169 1119ft 11kts
05-Oct-21 09:03 33.427753 -112.007849 270 1119ft 13kts
05-Oct-21 09:04 33.427751 -112.011073 269 1119ft 12kts
05-Oct-21 09:05 33.427756 -112.016898 267 1117ft 14kts
05-Oct-21 09:06 33.425622 -112.017046 89 1116ft 5kts
05-Oct-21 09:07 33.425621 -112.016573 91 1116ft 0kts
05-Oct-21 09:08 33.425621 -112.016573 91 1116ft 0kts

Navigation Log

Ident Type
Flight plan parsing failed, navigation log unavailable